createdAt,value
2019-04-16T00:00:29.024Z,-2
2019-04-16T00:01:29.118Z,-2
2019-04-16T00:02:29.050Z,-1.9
2019-04-16T00:03:29.061Z,-1.9
2019-04-16T00:04:29.190Z,-1.9
2019-04-16T00:05:29.211Z,-2
2019-04-16T00:06:29.205Z,-1.9
2019-04-16T00:07:29.285Z,-2
2019-04-16T00:08:29.348Z,-2
2019-04-16T00:09:29.409Z,-2
2019-04-16T00:10:29.460Z,-2
2019-04-16T00:11:29.496Z,-2
2019-04-16T00:12:29.525Z,-2
2019-04-16T00:13:29.591Z,-2
2019-04-16T00:14:29.636Z,-1.9
2019-04-16T00:15:29.670Z,-1.9
2019-04-16T00:16:29.723Z,-1.9
2019-04-16T00:17:29.787Z,-1.9
2019-04-16T00:18:29.860Z,-1.9
2019-04-16T00:19:29.849Z,-2
2019-04-16T00:20:29.894Z,-2.1
2019-04-16T00:21:29.959Z,-2
2019-04-16T00:22:29.983Z,-2.1
2019-04-16T00:23:30.049Z,-2.1
2019-04-16T00:24:30.077Z,-2
2019-04-16T00:25:30.130Z,-2.2
2019-04-16T00:26:30.205Z,-2.2
2019-04-16T00:27:30.196Z,-2.2
2019-04-16T00:28:30.665Z,-2.3
2019-04-16T00:29:32.915Z,-2.3
2019-04-16T00:30:30.324Z,-2.3
2019-04-16T00:31:30.340Z,-2.3
2019-04-16T00:32:30.354Z,-2.3
2019-04-16T00:33:30.376Z,-2.4
2019-04-16T00:34:30.385Z,-2.4
2019-04-16T00:35:30.448Z,-2.3
2019-04-16T00:36:30.497Z,-2.4
2019-04-16T00:37:30.581Z,-2.4
2019-04-16T00:38:40.302Z,-2.4
2019-04-16T00:39:30.604Z,-2.4
2019-04-16T00:40:30.649Z,-2.4
2019-04-16T00:41:30.692Z,-2.3
2019-04-16T00:42:30.721Z,-2.3
2019-04-16T00:43:30.737Z,-2.4
2019-04-16T00:44:30.775Z,-2.4
2019-04-16T00:45:30.815Z,-2.4
2019-04-16T00:46:30.829Z,-2.4
2019-04-16T00:47:30.885Z,-2.4
2019-04-16T00:48:30.907Z,-2.4
2019-04-16T00:49:30.961Z,-2.4
2019-04-16T00:50:31.020Z,-2.4
2019-04-16T00:51:31.017Z,-2.4
2019-04-16T00:52:31.034Z,-2.4
2019-04-16T00:53:31.058Z,-2.3
2019-04-16T00:54:31.098Z,-2.4
2019-04-16T00:55:31.124Z,-2.4
2019-04-16T00:56:31.156Z,-2.5
2019-04-16T00:57:31.207Z,-2.6
2019-04-16T00:58:31.213Z,-2.5
2019-04-16T00:59:31.248Z,-2.4
2019-04-16T01:00:31.333Z,-2.4
2019-04-16T01:01:31.288Z,-2.4
2019-04-16T01:02:31.315Z,-2.5
2019-04-16T01:03:31.358Z,-2.5
2019-04-16T01:04:31.423Z,-2.5
2019-04-16T01:05:34.994Z,-2.5
2019-04-16T01:06:31.437Z,-2.5
2019-04-16T01:07:31.469Z,-2.6
2019-04-16T01:08:31.477Z,-2.6
2019-04-16T01:09:31.597Z,-2.6
2019-04-16T01:10:31.523Z,-2.6
2019-04-16T01:11:31.551Z,-2.6
2019-04-16T01:12:31.543Z,-2.6
2019-04-16T01:13:31.573Z,-2.6
2019-04-16T01:14:31.612Z,-2.6
2019-04-16T01:15:31.921Z,-2.6
2019-04-16T01:16:32.898Z,-2.6
2019-04-16T01:17:33.335Z,-2.7
2019-04-16T01:18:31.647Z,-2.6
2019-04-16T01:19:31.679Z,-2.7
2019-04-16T01:20:31.693Z,-2.7
2019-04-16T01:21:31.739Z,-2.6
2019-04-16T01:22:31.725Z,-2.6
2019-04-16T01:23:31.746Z,-2.7
2019-04-16T01:24:31.846Z,-2.7
2019-04-16T01:25:31.767Z,-2.7
2019-04-16T01:26:31.791Z,-2.7
2019-04-16T01:27:31.758Z,-2.7
2019-04-16T01:28:32.614Z,-2.7
2019-04-16T01:29:33.821Z,-2.7
2019-04-16T01:30:36.257Z,-2.7
2019-04-16T01:31:31.824Z,-2.7
2019-04-16T01:32:31.855Z,-2.7
2019-04-16T01:33:31.836Z,-2.7
2019-04-16T01:34:31.830Z,-2.7
2019-04-16T01:35:31.837Z,-2.7
2019-04-16T01:36:31.866Z,-2.7
2019-04-16T01:37:31.882Z,-2.7
2019-04-16T01:38:31.858Z,-2.7
2019-04-16T01:39:31.847Z,-2.7
2019-04-16T01:40:31.870Z,-2.7
2019-04-16T01:41:31.865Z,-2.7
2019-04-16T01:42:31.869Z,-2.6
2019-04-16T01:43:31.882Z,-2.7
2019-04-16T01:44:31.956Z,-2.6
2019-04-16T01:45:31.985Z,-2.6
2019-04-16T01:46:32.783Z,-2.6
2019-04-16T01:47:35.710Z,-2.7
2019-04-16T01:48:32.196Z,-2.6
2019-04-16T01:49:32.224Z,-2.7
2019-04-16T01:50:32.294Z,-2.7
2019-04-16T01:51:32.354Z,-2.8
2019-04-16T01:52:32.405Z,-2.8
2019-04-16T01:53:32.460Z,-2.8
2019-04-16T01:54:32.746Z,-2.9
2019-04-16T01:55:32.563Z,-2.8
2019-04-16T01:56:32.649Z,-2.8
2019-04-16T01:57:32.692Z,-2.9
2019-04-16T01:58:33.815Z,-2.9
2019-04-16T01:59:35.551Z,-3
2019-04-16T02:00:32.859Z,-2.9
2019-04-16T02:01:32.893Z,-3
2019-04-16T02:02:32.953Z,-3
2019-04-16T02:03:33.098Z,-3
2019-04-16T02:04:33.083Z,-3
2019-04-16T02:05:33.117Z,-3
2019-04-16T02:06:33.208Z,-3
2019-04-16T02:07:33.242Z,-3
2019-04-16T02:08:33.241Z,-3
2019-04-16T02:09:34.570Z,-3
2019-04-16T02:10:35.373Z,-2.9
2019-04-16T02:11:35.953Z,-3
2019-04-16T02:12:33.405Z,-3
2019-04-16T02:13:33.446Z,-3.1
2019-04-16T02:14:33.510Z,-3
2019-04-16T02:15:33.541Z,-3
2019-04-16T02:16:33.651Z,-3.1
2019-04-16T02:17:33.648Z,-3.1
2019-04-16T02:18:33.679Z,-3.1
2019-04-16T02:19:33.734Z,-3.1
2019-04-16T02:20:38.293Z,-3.1
2019-04-16T02:21:33.846Z,-3
2019-04-16T02:22:33.849Z,-3
2019-04-16T02:23:33.920Z,-3.1
2019-04-16T02:24:33.961Z,-3.1
2019-04-16T02:25:34.026Z,-3
2019-04-16T02:26:34.078Z,-3
2019-04-16T02:27:34.147Z,-3.2
2019-04-16T02:28:34.179Z,-3.1
2019-04-16T02:29:34.237Z,-2.9
2019-04-16T02:30:38.976Z,-3.1
2019-04-16T02:31:34.327Z,-3.1
2019-04-16T02:32:34.373Z,-3.1
2019-04-16T02:33:34.392Z,-3.2
2019-04-16T02:34:34.491Z,-3.2
2019-04-16T02:35:34.501Z,-3.1
2019-04-16T02:36:34.575Z,-3.1
2019-04-16T02:37:36.244Z,-3
2019-04-16T02:38:34.648Z,-2.9
2019-04-16T02:39:47.457Z,-2.9
2019-04-16T02:40:34.766Z,-3
2019-04-16T02:41:34.754Z,-3.1
2019-04-16T02:42:34.822Z,-3.1
2019-04-16T02:43:39.380Z,-3
2019-04-16T02:44:34.867Z,-3.1
2019-04-16T02:45:34.849Z,-3.1
2019-04-16T02:46:34.894Z,-3.1
2019-04-16T02:47:39.630Z,-3.1
2019-04-16T02:48:34.994Z,-3.1
2019-04-16T02:49:35.023Z,-3.1
2019-04-16T02:50:35.074Z,-3.1
2019-04-16T02:51:39.502Z,-3
2019-04-16T02:52:35.093Z,-3
2019-04-16T02:53:35.078Z,-3.1
2019-04-16T02:54:35.161Z,-3.1
2019-04-16T02:55:35.189Z,-3
2019-04-16T02:56:35.192Z,-3.2
2019-04-16T02:57:35.234Z,-3.1
2019-04-16T02:58:35.397Z,-3.1
2019-04-16T02:59:35.321Z,-3.1
2019-04-16T03:00:35.310Z,-3.2
2019-04-16T03:01:35.376Z,-3.2
2019-04-16T03:02:35.473Z,-3.2
2019-04-16T03:03:35.425Z,-3.1
2019-04-16T03:04:35.438Z,-3.1
2019-04-16T03:05:35.498Z,-3.2
2019-04-16T03:06:35.521Z,-3.3
2019-04-16T03:07:35.560Z,-3.3
2019-04-16T03:08:36.010Z,-3.4
2019-04-16T03:09:39.715Z,-3.4
2019-04-16T03:10:35.700Z,-3.3
2019-04-16T03:11:35.641Z,-3.3
2019-04-16T03:12:35.677Z,-3.3
2019-04-16T03:13:35.697Z,-3.3
2019-04-16T03:14:35.755Z,-3.3
2019-04-16T03:15:35.765Z,-3.3
2019-04-16T03:16:37.876Z,-3.3
2019-04-16T03:17:35.798Z,-3.2
2019-04-16T03:18:35.858Z,-3.2
2019-04-16T03:19:38.727Z,-3.1
2019-04-16T03:20:35.873Z,-3.2
2019-04-16T03:21:35.888Z,-3.2
2019-04-16T03:22:35.921Z,-3.2
2019-04-16T03:23:37.475Z,-3.2
2019-04-16T03:24:37.450Z,-3.3
2019-04-16T03:25:35.963Z,-3.2
2019-04-16T03:26:35.955Z,-3.3
2019-04-16T03:27:35.985Z,-3.3
2019-04-16T03:28:36.014Z,-3.3
2019-04-16T03:29:36.057Z,-3.4
2019-04-16T03:30:42.011Z,-3.4
2019-04-16T03:31:36.022Z,-3.5
2019-04-16T03:32:36.393Z,-3.5
2019-04-16T03:33:36.067Z,-3.5
2019-04-16T03:34:36.082Z,-3.5
2019-04-16T03:35:36.061Z,-3.5
2019-04-16T03:36:36.078Z,-3.5
2019-04-16T03:37:36.080Z,-3.6
2019-04-16T03:38:36.938Z,-3.5
2019-04-16T03:39:36.101Z,-3.5
2019-04-16T03:40:36.085Z,-3.3
2019-04-16T03:41:36.077Z,-3.4
2019-04-16T03:42:36.110Z,-3.4
2019-04-16T03:43:36.106Z,-3.4
2019-04-16T03:44:37.126Z,-3.4
2019-04-16T03:45:37.462Z,-3.4
2019-04-16T03:46:36.195Z,-3.4
2019-04-16T03:47:36.206Z,-3.5
2019-04-16T03:48:36.248Z,-3.5
2019-04-16T03:49:36.329Z,-3.6
2019-04-16T03:50:36.339Z,-3.6
2019-04-16T03:51:36.561Z,-3.6
2019-04-16T03:52:37.374Z,-3.6
2019-04-16T03:53:36.511Z,-3.5
2019-04-16T03:54:36.575Z,-3.4
2019-04-16T03:55:36.630Z,-3.6
2019-04-16T03:56:36.682Z,-3.6
2019-04-16T03:57:36.716Z,-3.6
2019-04-16T03:58:38.340Z,-3.6
2019-04-16T03:59:39.932Z,-3.7
2019-04-16T04:00:36.762Z,-3.7
2019-04-16T04:01:36.851Z,-3.6
2019-04-16T04:02:36.976Z,-3.6
2019-04-16T04:03:37.046Z,-3.5
2019-04-16T04:04:36.982Z,-3.5
2019-04-16T04:05:37.050Z,-3.5
2019-04-16T04:06:39.387Z,-3.6
2019-04-16T04:07:37.127Z,-3.4
2019-04-16T04:08:37.102Z,-3.4
2019-04-16T04:09:37.094Z,-3.3
2019-04-16T04:10:37.903Z,-3.3
2019-04-16T04:11:40.806Z,-3.2
2019-04-16T04:12:37.281Z,-3.1
2019-04-16T04:13:37.254Z,-3.1
2019-04-16T04:14:37.309Z,-3.2
2019-04-16T04:15:38.326Z,-3.3
2019-04-16T04:16:37.311Z,-3.3
2019-04-16T04:17:38.594Z,-3.3
2019-04-16T04:18:37.368Z,-3.4
2019-04-16T04:19:37.359Z,-3.4
2019-04-16T04:20:37.421Z,-3.5
2019-04-16T04:21:37.483Z,-3.5
2019-04-16T04:22:37.502Z,-3.6
2019-04-16T04:23:37.593Z,-3.6
2019-04-16T04:24:37.570Z,-3.6
2019-04-16T04:25:37.614Z,-3.7
2019-04-16T04:26:40.855Z,-3.7
2019-04-16T04:27:37.644Z,-3.6
2019-04-16T04:28:37.761Z,-3.6
2019-04-16T04:29:37.723Z,-3.6
2019-04-16T04:30:37.756Z,-3.5
2019-04-16T04:31:37.786Z,-3.6
2019-04-16T04:32:37.818Z,-3.6
2019-04-16T04:33:41.325Z,-3.5
2019-04-16T04:34:37.921Z,-3.5
2019-04-16T04:35:37.925Z,-3.5
2019-04-16T04:36:37.988Z,-3.5
2019-04-16T04:37:38.006Z,-3.5
2019-04-16T04:38:38.404Z,-3.5
2019-04-16T04:39:38.044Z,-3.5
2019-04-16T04:40:44.537Z,-3.5
2019-04-16T04:41:38.137Z,-3.5
2019-04-16T04:42:38.145Z,-3.5
2019-04-16T04:43:38.191Z,-3.4
2019-04-16T04:44:38.182Z,-3.5
2019-04-16T04:45:40.705Z,-3.5
2019-04-16T04:46:38.261Z,-3.6
2019-04-16T04:47:38.273Z,-3.5
2019-04-16T04:48:38.419Z,-3.5
2019-04-16T04:49:38.313Z,-3.5
2019-04-16T04:50:38.416Z,-3.5
2019-04-16T04:51:42.379Z,-3.5
2019-04-16T04:52:38.422Z,-3.5
2019-04-16T04:53:40.925Z,-3.6
2019-04-16T04:54:38.436Z,-3.5
2019-04-16T04:55:38.517Z,-3.5
2019-04-16T04:56:38.488Z,-3.4
2019-04-16T04:57:38.516Z,-3.4
2019-04-16T04:58:38.520Z,-3.3
2019-04-16T04:59:38.517Z,-3.4
2019-04-16T05:00:40.247Z,-3.3
2019-04-16T05:01:41.933Z,-3.3
2019-04-16T05:02:38.562Z,-3.3
2019-04-16T05:03:38.674Z,-3.3
2019-04-16T05:04:38.617Z,-3.3
2019-04-16T05:05:38.642Z,-3.2
2019-04-16T05:06:38.645Z,-3.2
2019-04-16T05:07:38.695Z,-3.1
2019-04-16T05:08:38.697Z,-3.1
2019-04-16T05:09:38.710Z,-3.1
2019-04-16T05:10:42.649Z,-3.1
2019-04-16T05:11:38.732Z,-3
2019-04-16T05:12:38.754Z,-2.9
2019-04-16T05:13:38.761Z,-2.9
2019-04-16T05:14:38.783Z,-2.8
2019-04-16T05:15:38.812Z,-2.8
2019-04-16T05:16:38.823Z,-2.8
2019-04-16T05:17:39.297Z,-2.8
2019-04-16T05:18:41.732Z,-2.7
2019-04-16T05:19:38.919Z,-2.7
2019-04-16T05:20:38.864Z,-2.6
2019-04-16T05:21:38.915Z,-2.6
2019-04-16T05:22:38.889Z,-2.6
2019-04-16T05:23:38.892Z,-2.6
2019-04-16T05:24:38.910Z,-2.5
2019-04-16T05:25:38.912Z,-2.6
2019-04-16T05:26:38.926Z,-2.5
2019-04-16T05:27:40.986Z,-2.6
2019-04-16T05:28:44.258Z,-2.5
2019-04-16T05:29:38.958Z,-2.6
2019-04-16T05:30:38.941Z,-2.5
2019-04-16T05:31:38.964Z,-2.6
2019-04-16T05:32:38.961Z,-2.6
2019-04-16T05:33:39.007Z,-2.6
2019-04-16T05:34:38.966Z,-2.5
2019-04-16T05:35:41.332Z,-2.5
2019-04-16T05:36:40.226Z,-2.5
2019-04-16T05:37:39.049Z,-2.4
2019-04-16T05:38:39.114Z,-2.4
2019-04-16T05:39:39.181Z,-2.4
2019-04-16T05:40:39.247Z,-2.4
2019-04-16T05:41:39.234Z,-2.4
2019-04-16T05:42:39.261Z,-2.3
2019-04-16T05:43:39.309Z,-2.3
2019-04-16T05:44:39.368Z,-2.3
2019-04-16T05:45:39.391Z,-2.2
2019-04-16T05:46:41.267Z,-2.2
2019-04-16T05:47:39.507Z,-2.2
2019-04-16T05:48:39.568Z,-2.2
2019-04-16T05:49:39.611Z,-2.2
2019-04-16T05:50:39.663Z,-2.2
2019-04-16T05:51:39.705Z,-2.1
2019-04-16T05:52:39.787Z,-2.1
2019-04-16T05:53:40.070Z,-2
2019-04-16T05:54:41.404Z,-2
2019-04-16T05:55:39.891Z,-2
2019-04-16T05:56:39.877Z,-1.9
2019-04-16T05:57:39.925Z,-1.8
2019-04-16T05:58:40.017Z,-1.7
2019-04-16T05:59:39.926Z,-1.8
2019-04-16T06:00:41.599Z,-1.8
2019-04-16T06:01:57.302Z,-1.7
2019-04-16T06:02:40.108Z,-1.7
2019-04-16T06:03:40.175Z,-1.7
2019-04-16T06:04:40.151Z,-1.7
2019-04-16T06:05:40.209Z,-1.7
2019-04-16T06:06:40.190Z,-1.8
2019-04-16T06:07:40.262Z,-1.8
2019-04-16T06:08:41.486Z,-1.8
2019-04-16T06:09:41.397Z,-1.8
2019-04-16T06:10:40.420Z,-1.8
2019-04-16T06:11:40.491Z,-1.7
2019-04-16T06:12:42.970Z,-1.6
2019-04-16T06:13:41.261Z,-1.6
2019-04-16T06:14:40.574Z,-1.6
2019-04-16T06:15:40.678Z,-1.7
2019-04-16T06:16:40.646Z,-1.7
2019-04-16T06:17:40.702Z,-1.7
2019-04-16T06:18:40.781Z,-1.8
2019-04-16T06:19:46.378Z,-1.8
2019-04-16T06:20:40.854Z,-1.8
2019-04-16T06:21:40.902Z,-1.8
2019-04-16T06:22:40.964Z,-1.8
2019-04-16T06:23:41.018Z,-1.8
2019-04-16T06:24:41.039Z,-1.7
2019-04-16T06:25:42.057Z,-1.7
2019-04-16T06:26:41.132Z,-1.7
2019-04-16T06:27:41.180Z,-1.9
2019-04-16T06:28:41.213Z,-2
2019-04-16T06:29:41.254Z,-1.9
2019-04-16T06:30:41.315Z,-1.9
2019-04-16T06:31:41.343Z,-1.8
2019-04-16T06:32:41.358Z,-1.8
2019-04-16T06:33:41.385Z,-1.7
2019-04-16T06:34:41.429Z,-1.4
2019-04-16T06:35:43.267Z,-1.3
2019-04-16T06:36:41.514Z,-1.2
2019-04-16T06:37:41.538Z,-1
2019-04-16T06:38:41.565Z,-0.7
2019-04-16T06:39:41.575Z,-0.6
2019-04-16T06:40:41.587Z,-0.6
2019-04-16T06:41:47.176Z,-0.6
2019-04-16T06:42:41.662Z,-1.3
2019-04-16T06:43:42.724Z,-1.4
2019-04-16T06:44:42.799Z,-1.6
2019-04-16T06:45:41.778Z,-1.9
2019-04-16T06:46:41.792Z,-2
2019-04-16T06:47:42.742Z,-1.9
2019-04-16T06:48:42.428Z,-2.1
2019-04-16T06:49:41.883Z,-1.8
2019-04-16T06:50:41.912Z,-1.4
2019-04-16T06:51:44.430Z,-1.2
2019-04-16T06:52:41.952Z,-1.4
2019-04-16T06:53:41.978Z,-1.8
2019-04-16T06:54:45.152Z,-1.9
2019-04-16T06:55:42.940Z,-1.5
2019-04-16T06:56:42.077Z,-1.5
2019-04-16T06:57:42.835Z,-1.3
2019-04-16T06:58:50.525Z,-1.2
2019-04-16T06:59:42.126Z,-1.1
2019-04-16T07:00:42.159Z,-1.4
2019-04-16T07:01:42.409Z,-1
2019-04-16T07:02:43.936Z,-1
2019-04-16T07:03:42.177Z,-1.1
2019-04-16T07:04:42.201Z,-1.1
2019-04-16T07:05:42.201Z,-1.3
2019-04-16T07:06:43.821Z,-0.6
2019-04-16T07:07:45.568Z,-1.1
2019-04-16T07:08:42.260Z,-1.7
2019-04-16T07:09:42.661Z,-1.7
2019-04-16T07:10:44.542Z,-0.5
2019-04-16T07:11:53.620Z,-1.1
2019-04-16T07:12:42.381Z,-1.1
2019-04-16T07:13:42.986Z,-0.4
2019-04-16T07:14:42.363Z,-0.8
2019-04-16T07:15:42.347Z,-0.9
2019-04-16T07:16:42.360Z,-1.1
2019-04-16T07:17:42.373Z,-0.8
2019-04-16T07:18:42.422Z,-1.2
2019-04-16T07:19:42.820Z,-1.3
2019-04-16T07:20:45.641Z,-1.8
2019-04-16T07:21:42.426Z,-0.9
2019-04-16T07:22:42.439Z,-0.6
2019-04-16T07:23:45.453Z,-0.8
2019-04-16T07:24:42.457Z,-0.8
2019-04-16T07:25:43.623Z,-1.3
2019-04-16T07:26:46.220Z,-1.2
2019-04-16T07:27:42.482Z,-0.8
2019-04-16T07:28:42.833Z,-1.1
2019-04-16T07:29:45.923Z,-1.1
2019-04-16T07:30:42.507Z,-1.1
2019-04-16T07:31:42.574Z,-0.4
2019-04-16T07:32:42.503Z,-0.2
2019-04-16T07:33:42.503Z,-0.4
2019-04-16T07:34:42.575Z,-0.5
2019-04-16T07:35:42.581Z,-1
2019-04-16T07:36:42.755Z,-0.9
2019-04-16T07:37:42.650Z,-0.8
2019-04-16T07:38:42.670Z,-0.4
2019-04-16T07:39:42.771Z,-0.5
2019-04-16T07:40:42.793Z,0
2019-04-16T07:41:43.767Z,-0.1
2019-04-16T07:42:51.506Z,-0.3
2019-04-16T07:43:42.960Z,-0.3
2019-04-16T07:44:43.045Z,0
2019-04-16T07:45:43.094Z,0
2019-04-16T07:46:44.110Z,-0.7
2019-04-16T07:47:43.221Z,-0.2
2019-04-16T07:48:43.206Z,0.3
2019-04-16T07:49:43.286Z,0.1
2019-04-16T07:50:43.296Z,-0.4
2019-04-16T07:51:43.360Z,-0.5
2019-04-16T07:52:43.522Z,-0.9
2019-04-16T07:53:47.057Z,-0.8
2019-04-16T07:54:43.540Z,-0.4
2019-04-16T07:55:43.594Z,0
2019-04-16T07:56:43.651Z,-0.1
2019-04-16T07:57:43.729Z,0.4
2019-04-16T07:58:43.777Z,0
2019-04-16T07:59:43.770Z,0.1
2019-04-16T08:00:43.789Z,0.8
2019-04-16T08:01:43.981Z,1.3
2019-04-16T08:02:43.903Z,0.4
2019-04-16T08:03:43.940Z,-0.1
2019-04-16T08:04:44.039Z,0.3
2019-04-16T08:05:44.030Z,0.1
2019-04-16T08:06:47.111Z,-0.2
2019-04-16T08:07:44.096Z,-0.7
2019-04-16T08:08:44.149Z,0.1
2019-04-16T08:09:44.159Z,0
2019-04-16T08:10:44.174Z,0
2019-04-16T08:11:44.178Z,0.3
2019-04-16T08:12:44.214Z,0
2019-04-16T08:13:44.224Z,-0.7
2019-04-16T08:14:44.274Z,-0.3
2019-04-16T08:15:44.340Z,-0.3
2019-04-16T08:16:47.429Z,-0.3
2019-04-16T08:17:44.407Z,-0.2
2019-04-16T08:18:44.429Z,-0.4
2019-04-16T08:19:44.636Z,-0.2
2019-04-16T08:20:44.494Z,-0.2
2019-04-16T08:21:44.680Z,-0.6
2019-04-16T08:22:47.156Z,-0.5
2019-04-16T08:23:44.615Z,-0.9
2019-04-16T08:24:44.668Z,-0.7
2019-04-16T08:25:44.719Z,-0.6
2019-04-16T08:26:45.343Z,-1.1
2019-04-16T08:27:47.040Z,-2.2
2019-04-16T08:28:44.839Z,-2.2
2019-04-16T08:29:44.834Z,-2.1
2019-04-16T08:30:44.835Z,-2
2019-04-16T08:31:44.972Z,-2.4
2019-04-16T08:32:45.698Z,-2.4
2019-04-16T08:33:44.939Z,-2.2
2019-04-16T08:34:44.979Z,-2.3
2019-04-16T08:35:44.977Z,-2
2019-04-16T08:36:45.006Z,-2.1
2019-04-16T08:37:49.001Z,-1.7
2019-04-16T08:38:45.081Z,-2.2
2019-04-16T08:39:45.099Z,-2.2
2019-04-16T08:40:46.217Z,-2.7
2019-04-16T08:41:45.164Z,-2.3
2019-04-16T08:42:45.255Z,-2.8
2019-04-16T08:43:45.179Z,-2.3
2019-04-16T08:44:45.187Z,-2.2
2019-04-16T08:45:45.201Z,-2.4
2019-04-16T08:46:45.268Z,-2.4
2019-04-16T08:47:46.090Z,-2.6
2019-04-16T08:48:48.859Z,-2.5
2019-04-16T08:49:45.330Z,-2.6
2019-04-16T08:50:45.385Z,-2.4
2019-04-16T08:51:45.492Z,-2.8
2019-04-16T08:52:45.460Z,-2.6
2019-04-16T08:53:46.618Z,-2.5
2019-04-16T08:54:49.945Z,-2.8
2019-04-16T08:55:45.562Z,-2.9
2019-04-16T08:56:45.665Z,-2.5
2019-04-16T08:57:46.993Z,-2.6
2019-04-16T08:58:45.666Z,-2.5
2019-04-16T08:59:45.698Z,-2.6
2019-04-16T09:00:46.345Z,-3.1
2019-04-16T09:01:45.723Z,-2.5
2019-04-16T09:02:45.738Z,-2.5
2019-04-16T09:03:45.748Z,-2.5
2019-04-16T09:04:45.950Z,-2.2
2019-04-16T09:05:45.796Z,-2.8
2019-04-16T09:06:47.181Z,-2.4
2019-04-16T09:07:50.575Z,-2.5
2019-04-16T09:08:45.894Z,-2.1
2019-04-16T09:09:45.868Z,-2.7
2019-04-16T09:10:45.891Z,-2.4
2019-04-16T09:11:48.419Z,-2.7
2019-04-16T09:12:55.903Z,-2.5
2019-04-16T09:13:47.925Z,-2.7
2019-04-16T09:14:45.965Z,-2.5
2019-04-16T09:15:46.029Z,-2.3
2019-04-16T09:16:46.035Z,-3
2019-04-16T09:17:46.043Z,-2.4
2019-04-16T09:18:46.083Z,-3.3
2019-04-16T09:19:46.058Z,-2.6
2019-04-16T09:20:46.120Z,-2.3
2019-04-16T09:21:46.124Z,-2.6
2019-04-16T09:22:49.042Z,-2.7
2019-04-16T09:23:46.163Z,-2.7
2019-04-16T09:24:46.202Z,-2.4
2019-04-16T09:25:46.660Z,-3.2
2019-04-16T09:26:46.218Z,-2.5
2019-04-16T09:27:46.216Z,-2
2019-04-16T09:28:46.234Z,-2.7
2019-04-16T09:29:46.235Z,-3
2019-04-16T09:30:46.574Z,-2.9
2019-04-16T09:31:46.325Z,-2.6
2019-04-16T09:32:46.293Z,-2.6
2019-04-16T09:33:46.297Z,-2.5
2019-04-16T09:34:46.348Z,-2.7
2019-04-16T09:35:46.325Z,-2.2
2019-04-16T09:36:46.343Z,-2.4
2019-04-16T09:37:46.331Z,-3.4
2019-04-16T09:38:46.506Z,-3.2
2019-04-16T09:39:46.366Z,-3.1
2019-04-16T09:40:49.018Z,-3.3
2019-04-16T09:41:46.394Z,-3.2
2019-04-16T09:42:46.412Z,-4
2019-04-16T09:43:46.513Z,-3.3
2019-04-16T09:44:46.378Z,-2.8
2019-04-16T09:45:46.435Z,-2.7
2019-04-16T09:46:50.795Z,-3.2
2019-04-16T09:47:46.419Z,-3
2019-04-16T09:48:49.689Z,-2.8
2019-04-16T09:49:46.512Z,-3.1
2019-04-16T09:50:48.427Z,-3.3
2019-04-16T09:51:46.462Z,-3.4
2019-04-16T09:52:46.567Z,-3.3
2019-04-16T09:53:46.612Z,-3.3
2019-04-16T09:54:46.663Z,-3
2019-04-16T09:55:47.492Z,-2.4
2019-04-16T09:56:46.730Z,-2.6
2019-04-16T09:57:46.743Z,-2
2019-04-16T09:58:46.831Z,-3.2
2019-04-16T09:59:47.626Z,-3.3
2019-04-16T10:00:47.202Z,-2.7
2019-04-16T10:01:47.001Z,-3
2019-04-16T10:02:47.045Z,-3.1
2019-04-16T10:03:47.108Z,-2.9
2019-04-16T10:04:47.147Z,-3.4
2019-04-16T10:05:47.172Z,-3.1
2019-04-16T10:06:47.176Z,-3.4
2019-04-16T10:07:47.244Z,-2.9
2019-04-16T10:08:47.301Z,-2.8
2019-04-16T10:09:47.383Z,-2.8
2019-04-16T10:10:47.413Z,-2.7
2019-04-16T10:11:47.475Z,-3
2019-04-16T10:12:47.540Z,-3
2019-04-16T10:13:47.567Z,-3.2
2019-04-16T10:14:47.630Z,-3.4
2019-04-16T10:15:47.698Z,-3.3
2019-04-16T10:16:47.739Z,-3
2019-04-16T10:17:47.855Z,-3.5
2019-04-16T10:18:47.836Z,-2.3
2019-04-16T10:19:47.905Z,-1.8
2019-04-16T10:21:52.901Z,-2.6
2019-04-16T10:22:48.078Z,-3
2019-04-16T10:23:48.131Z,-2.3
2019-04-16T10:24:48.181Z,-2.1
2019-04-16T10:25:48.220Z,-2.5
2019-04-16T10:26:48.277Z,-2.3
2019-04-16T10:27:48.311Z,-2.4
2019-04-16T10:28:48.385Z,-1.9
2019-04-16T10:29:48.438Z,-1.7
2019-04-16T10:30:48.457Z,-2.3
2019-04-16T10:31:48.498Z,-1.9
2019-04-16T10:32:48.520Z,-1.6
2019-04-16T10:33:48.591Z,-1.4
2019-04-16T10:34:48.597Z,-1.8
2019-04-16T10:35:48.619Z,-1.5
2019-04-16T10:36:48.671Z,-1.9
2019-04-16T10:37:48.667Z,-2.5
2019-04-16T10:38:48.705Z,-2.5
2019-04-16T10:39:48.722Z,-2.8
2019-04-16T10:40:48.764Z,-2.8
2019-04-16T10:41:48.772Z,-2.8
2019-04-16T10:42:48.803Z,-2.3
2019-04-16T10:43:48.883Z,-1.9
2019-04-16T10:44:48.904Z,-2.9
2019-04-16T10:45:48.903Z,-2.5
2019-04-16T10:46:48.954Z,-2.4
2019-04-16T10:47:48.984Z,-2.8
2019-04-16T10:48:49.003Z,-2.8
2019-04-16T10:49:49.025Z,-3.1
2019-04-16T10:50:49.051Z,-3.3
2019-04-16T10:51:49.064Z,-3.1
2019-04-16T10:52:53.944Z,-3.4
2019-04-16T10:53:49.098Z,-3
2019-04-16T10:54:49.086Z,-2.7
2019-04-16T10:55:49.369Z,-2
2019-04-16T10:56:49.216Z,-2.2
2019-04-16T10:57:49.152Z,-2.6
2019-04-16T10:58:49.194Z,-2.8
2019-04-16T10:59:49.210Z,-2.7
2019-04-16T11:00:49.258Z,-2.9
2019-04-16T11:01:49.258Z,-2.7
2019-04-16T11:02:49.267Z,-2.6
2019-04-16T11:03:49.299Z,-2.7
2019-04-16T11:04:49.361Z,-2.2
2019-04-16T11:05:49.351Z,-2.8
2019-04-16T11:06:49.444Z,-2.5
2019-04-16T11:07:49.374Z,-3.2
2019-04-16T11:08:49.427Z,-2.4
2019-04-16T11:09:49.417Z,-2.7
2019-04-16T11:10:49.474Z,-2.8
2019-04-16T11:11:49.479Z,-3.4
2019-04-16T11:12:49.518Z,-2.8
2019-04-16T11:13:59.560Z,-2.6
2019-04-16T11:14:49.532Z,-3.4
2019-04-16T11:15:49.546Z,-3.2
2019-04-16T11:16:49.518Z,-2.8
2019-04-16T11:17:49.557Z,-2.4
2019-04-16T11:18:49.564Z,-2.5
2019-04-16T11:19:52.422Z,-2.5
2019-04-16T11:20:49.595Z,-3.1
2019-04-16T11:21:49.627Z,-2.4
2019-04-16T11:22:49.639Z,-2.7
2019-04-16T11:23:49.639Z,-2.8
2019-04-16T11:24:49.637Z,-3
2019-04-16T11:25:49.723Z,-2.6
2019-04-16T11:26:49.654Z,-3.3
2019-04-16T11:27:49.728Z,-3
2019-04-16T11:28:49.678Z,-2.6
2019-04-16T11:29:49.690Z,-2.4
2019-04-16T11:30:49.689Z,-2.4
2019-04-16T11:31:49.707Z,-2.7
2019-04-16T11:32:53.049Z,-2.9
2019-04-16T11:33:49.714Z,-2.3
2019-04-16T11:34:49.782Z,-2.1
2019-04-16T11:35:56.934Z,-2.4
2019-04-16T11:36:49.747Z,-1.6
2019-04-16T11:37:49.721Z,-2.4
2019-04-16T11:38:49.726Z,-2.4
2019-04-16T11:39:49.782Z,-2.7
2019-04-16T11:40:49.891Z,-2.6
2019-04-16T11:41:52.303Z,-3.1
2019-04-16T11:42:49.864Z,-2.5
2019-04-16T11:43:49.881Z,-3.3
2019-04-16T11:44:50.336Z,-2.9
2019-04-16T11:45:49.955Z,-2.6
2019-04-16T11:46:50.018Z,-2.2
2019-04-16T11:47:50.086Z,-2.6
2019-04-16T11:48:50.403Z,-2.2
2019-04-16T11:49:50.142Z,-2.7
2019-04-16T11:50:50.197Z,-2.2
2019-04-16T11:51:50.328Z,-2.4
2019-04-16T11:52:50.398Z,-2.3
2019-04-16T11:53:50.392Z,-2.1
2019-04-16T11:54:50.406Z,-2.1
2019-04-16T11:55:50.432Z,-2.7
2019-04-16T11:56:50.492Z,-2
2019-04-16T11:57:50.519Z,-2.8
2019-04-16T11:58:50.573Z,-2.3
2019-04-16T12:00:05.746Z,-2.2
2019-04-16T12:00:50.765Z,-2.2
2019-04-16T12:01:50.752Z,-2.4
2019-04-16T12:02:50.787Z,-2.4
2019-04-16T12:03:50.841Z,-2.6
2019-04-16T12:04:50.917Z,-2.9
2019-04-16T12:05:50.975Z,-2.4
2019-04-16T12:06:50.977Z,-2.3
2019-04-16T12:07:50.982Z,-1.8
2019-04-16T12:08:51.068Z,-2.1
2019-04-16T12:09:51.021Z,-2.1
2019-04-16T12:10:51.068Z,-2.4
2019-04-16T12:11:51.106Z,-2.3
2019-04-16T12:12:51.122Z,-2.1
2019-04-16T12:13:51.198Z,-2.1
2019-04-16T12:14:51.208Z,-2.6
2019-04-16T12:15:51.246Z,-2
2019-04-16T12:16:51.277Z,-2.1
2019-04-16T12:17:51.339Z,-2.1
2019-04-16T12:18:51.302Z,-2.2
2019-04-16T12:19:51.327Z,-2.2
2019-04-16T12:20:51.306Z,-1.9
2019-04-16T12:21:51.376Z,-2.1
2019-04-16T12:22:51.405Z,-2.3
2019-04-16T12:23:51.408Z,-2.2
2019-04-16T12:24:51.451Z,-2.5
2019-04-16T12:25:51.568Z,-2.8
2019-04-16T12:26:51.530Z,-1.9
2019-04-16T12:27:51.610Z,-2.2
2019-04-16T12:28:51.672Z,-2.5
2019-04-16T12:29:51.647Z,-2.2
2019-04-16T12:30:51.761Z,-1.7
2019-04-16T12:31:51.760Z,-2.4
2019-04-16T12:32:51.798Z,-2.6
2019-04-16T12:33:51.812Z,-1.7
2019-04-16T12:34:51.865Z,-1.5
2019-04-16T12:35:51.831Z,-2.4
2019-04-16T12:36:51.878Z,-1.2
2019-04-16T12:37:51.901Z,-1.4
2019-04-16T12:38:51.851Z,-1.8
2019-04-16T12:39:51.928Z,-2.2
2019-04-16T12:40:51.973Z,-1.9
2019-04-16T12:41:51.943Z,-2.8
2019-04-16T12:42:51.943Z,-2.6
2019-04-16T12:43:51.993Z,-2.5
2019-04-16T12:44:52.007Z,-2.3
2019-04-16T12:45:53.474Z,-2.3
2019-04-16T12:46:52.053Z,-2
2019-04-16T12:47:52.060Z,-2.5
2019-04-16T12:48:52.084Z,-2.3
2019-04-16T12:49:52.124Z,-2.4
2019-04-16T12:50:52.156Z,-2.4
2019-04-16T12:51:52.120Z,-2.9
2019-04-16T12:52:54.899Z,-2.6
2019-04-16T12:53:53.334Z,-2.7
2019-04-16T12:54:58.121Z,-2.5
2019-04-16T12:55:52.268Z,-2.7
2019-04-16T12:56:52.292Z,-2.6
2019-04-16T12:57:52.339Z,-2.4
2019-04-16T12:58:52.359Z,-2.6
2019-04-16T12:59:54.930Z,-2.8
2019-04-16T13:00:52.347Z,-3.1
2019-04-16T13:01:52.364Z,-2.7
2019-04-16T13:02:52.397Z,-2.8
2019-04-16T13:03:53.289Z,-2.8
2019-04-16T13:04:52.402Z,-2.8
2019-04-16T13:05:53.857Z,-3.2
2019-04-16T13:06:52.443Z,-2.8
2019-04-16T13:07:52.473Z,-3
2019-04-16T13:08:53.541Z,-2.5
2019-04-16T13:09:52.473Z,-2.8
2019-04-16T13:10:52.499Z,-2.5
2019-04-16T13:11:52.520Z,-2.3
2019-04-16T13:12:52.524Z,-2.5
2019-04-16T13:13:52.529Z,-2.3
2019-04-16T13:15:00.278Z,-2.4
2019-04-16T13:15:52.566Z,-2.6
2019-04-16T13:16:52.603Z,-2.8
2019-04-16T13:17:52.660Z,-2.9
2019-04-16T13:18:52.565Z,-2.8
2019-04-16T13:19:52.579Z,-2.9
2019-04-16T13:20:52.616Z,-2.8
2019-04-16T13:21:52.715Z,-2.3
2019-04-16T13:22:52.711Z,-2
2019-04-16T13:23:52.628Z,-2.8
2019-04-16T13:24:52.652Z,-2.9
2019-04-16T13:25:52.605Z,-2.4